Time;durP1;ratioP1;P1;durP2;ratioP2;P2;SDS_P1;SDS_P2;PMS_P1;PMS_P2;Temp;Humidity;BMP_temperature;BMP_pressure;BME280_temperature;BME280_humidity;BME280_pressure;Samples;Min_cycle;Max_cycle;Signal;HPM_P1;HPM_P2
2023/07/12 00:01:14;;;;;;;2.22;1.20;;;18.90;99.90;;;;;;5120615;27;20493;-80
2023/07/12 00:03:40;;;;;;;5.03;1.52;;;18.90;99.90;;;;;;5118510;27;20059;-80
2023/07/12 00:06:20;;;;;;;3.50;1.63;;;18.90;99.90;;;;;;5120699;27;20143;-80
2023/07/12 00:08:46;;;;;;;1.90;1.20;;;18.90;99.90;;;;;;5120437;27;20125;-80
2023/07/12 00:11:17;;;;;;;1.30;1.10;;;18.90;99.90;;;;;;5116497;27;20035;-80
2023/07/12 00:13:43;;;;;;;3.85;1.40;;;18.90;99.90;;;;;;5121271;27;20497;-79
2023/07/12 00:16:19;;;;;;;4.38;1.40;;;18.90;99.90;;;;;;5119568;27;20071;-80
2023/07/12 00:18:44;;;;;;;3.03;1.40;;;18.90;99.90;;;;;;5118875;27;20034;-80
2023/07/12 00:21:12;;;;;;;2.13;1.30;;;18.90;99.90;;;;;;5123312;27;20100;-80
2023/07/12 00:23:38;;;;;;;5.95;1.38;;;18.90;99.90;;;;;;5110006;27;20039;-79
2023/07/12 00:26:23;;;;;;;2.17;1.58;;;18.80;99.90;;;;;;5102819;27;20059;-80
2023/07/12 00:28:48;;;;;;;3.70;1.95;;;18.80;99.90;;;;;;5118689;27;20051;-80
2023/07/12 00:31:14;;;;;;;5.25;1.48;;;18.80;99.90;;;;;;5118865;27;20503;-80
2023/07/12 00:33:39;;;;;;;3.60;1.58;;;18.80;99.90;;;;;;5117129;27;20470;-79
2023/07/12 00:36:11;;;;;;;5.82;2.00;;;18.80;99.90;;;;;;5116869;27;20039;-80
2023/07/12 00:38:37;;;;;;;3.05;1.70;;;18.80;99.90;;;;;;5114485;27;20383;-79
2023/07/12 00:41:08;;;;;;;5.70;2.10;;;18.90;99.90;;;;;;5121169;27;20046;-80
2023/07/12 00:43:41;;;;;;;4.40;1.90;;;18.80;99.90;;;;;;5125046;27;20170;-80
2023/07/12 00:46:29;;;;;;;2.67;1.98;;;18.80;99.90;;;;;;5118177;27;20047;-79
2023/07/12 00:48:54;;;;;;;2.88;2.22;;;18.80;99.90;;;;;;5119034;27;20828;-80
2023/07/12 00:51:33;;;;;;;4.78;2.50;;;18.70;99.90;;;;;;5121817;27;20042;-79
2023/07/12 00:53:58;;;;;;;2.97;1.90;;;18.70;99.90;;;;;;5115494;27;20138;-79
2023/07/12 00:56:25;;;;;;;5.55;1.80;;;18.70;99.90;;;;;;5122682;27;20522;-80
2023/07/12 00:58:58;;;;;;;3.75;1.95;;;18.80;99.90;;;;;;5120050;27;20039;-80
2023/07/12 01:01:26;;;;;;;3.13;1.90;;;18.70;99.90;;;;;;5118308;27;20043;-80
2023/07/12 01:03:54;;;;;;;3.65;2.33;;;18.70;99.90;;;;;;5119707;27;20111;-80
2023/07/12 01:06:21;;;;;;;7.55;2.45;;;18.80;99.90;;;;;;5118748;27;20110;-79
2023/07/12 01:08:46;;;;;;;4.47;1.77;;;18.70;99.90;;;;;;5120214;27;20046;-80
2023/07/12 01:11:15;;;;;;;6.75;2.10;;;18.70;99.90;;;;;;5120458;27;20490;-80
2023/07/12 01:13:43;;;;;;;3.25;2.10;;;18.80;99.90;;;;;;5120252;27;20100;-80
2023/07/12 01:16:10;;;;;;;5.68;2.30;;;18.80;99.90;;;;;;5119312;27;20615;-79
2023/07/12 01:18:37;;;;;;;5.68;2.90;;;18.70;99.90;;;;;;5114836;27;20462;-80
2023/07/12 01:21:21;;;;;;;5.43;1.70;;;18.80;99.90;;;;;;5113110;27;20508;-80
2023/07/12 01:23:47;;;;;;;2.30;2.03;;;18.80;99.90;;;;;;5122242;27;20031;-80
2023/07/12 01:26:39;;;;;;;6.65;2.25;;;18.70;99.90;;;;;;5114193;27;20069;-80
2023/07/12 01:29:07;;;;;;;5.57;1.92;;;18.70;99.90;;;;;;5114785;27;20618;-80
2023/07/12 01:31:35;;;;;;;3.00;1.75;;;18.70;99.90;;;;;;5100229;27;20050;-79
2023/07/12 01:34:00;;;;;;;3.45;2.17;;;18.70;99.90;;;;;;5118338;27;20231;-79
2023/07/12 01:36:28;;;;;;;4.35;2.63;;;18.60;99.90;;;;;;5114520;27;20118;-79
2023/07/12 01:38:56;;;;;;;5.97;2.00;;;18.60;99.90;;;;;;5104453;27;20131;-80
2023/07/12 01:41:22;;;;;;;3.63;2.20;;;18.60;99.90;;;;;;5124164;27;20031;-80
2023/07/12 01:43:48;;;;;;;5.07;2.10;;;18.60;99.90;;;;;;5114176;27;20126;-80
2023/07/12 01:46:14;;;;;;;3.03;2.45;;;18.60;99.90;;;;;;5114701;27;20044;-80
2023/07/12 01:48:40;;;;;;;5.07;2.65;;;18.60;99.90;;;;;;5114288;27;20051;-80
2023/07/12 01:51:06;;;;;;;3.00;2.28;;;18.60;99.90;;;;;;5114679;27;20405;-80
2023/07/12 01:53:33;;;;;;;4.68;2.35;;;18.50;99.90;;;;;;5112450;27;20118;-80
2023/07/12 01:55:59;;;;;;;4.22;2.15;;;18.50;99.90;;;;;;5114103;27;20125;-79
2023/07/12 01:58:25;;;;;;;4.85;2.08;;;18.50;99.90;;;;;;5110839;27;20043;-79
2023/07/12 02:00:51;;;;;;;4.43;1.83;;;18.40;99.90;;;;;;5113826;27;20038;-79
2023/07/12 02:03:17;;;;;;;2.63;1.90;;;18.30;99.90;;;;;;5114837;27;20386;-80
2023/07/12 02:05:43;;;;;;;3.60;1.92;;;18.30;99.90;;;;;;5120761;27;20118;-80
2023/07/12 02:08:09;;;;;;;3.47;1.90;;;18.20;99.90;;;;;;5102233;27;20390;-79
2023/07/12 02:10:35;;;;;;;6.47;2.05;;;18.20;99.90;;;;;;5117241;27;20650;-80
2023/07/12 02:13:01;;;;;;;3.50;2.10;;;18.20;99.90;;;;;;5115358;27;20046;-79
2023/07/12 02:15:27;;;;;;;3.97;2.00;;;18.10;99.90;;;;;;5117665;27;20032;-80
2023/07/12 02:17:53;;;;;;;6.72;2.10;;;18.10;99.90;;;;;;5113472;27;20053;-79
2023/07/12 02:20:19;;;;;;;4.93;2.00;;;18.10;99.90;;;;;;5116110;27;20102;-79
2023/07/12 02:22:46;;;;;;;5.97;2.20;;;18.10;99.90;;;;;;5114472;27;20038;-79
2023/07/12 02:25:13;;;;;;;3.00;1.92;;;18.10;99.90;;;;;;5103972;28;20137;-79
2023/07/12 02:27:40;;;;;;;4.80;2.05;;;18.10;99.90;;;;;;5103101;27;20134;-79
2023/07/12 02:30:09;;;;;;;6.45;2.22;;;18.10;99.90;;;;;;5114641;27;20052;-79
2023/07/12 02:32:34;;;;;;;7.43;2.45;;;18.00;99.90;;;;;;5118923;27;20580;-79
2023/07/12 02:35:00;;;;;;;3.70;1.75;;;18.10;99.90;;;;;;5113247;27;20123;-79
2023/07/12 02:37:25;;;;;;;6.20;2.38;;;18.00;99.90;;;;;;5116184;27;20106;-80
2023/07/12 02:39:51;;;;;;;6.03;2.60;;;18.10;99.90;;;;;;5113796;27;20461;-80
2023/07/12 02:42:17;;;;;;;7.72;2.30;;;18.10;99.90;;;;;;5112305;27;20401;-79
2023/07/12 02:44:42;;;;;;;9.38;2.45;;;18.00;99.90;;;;;;5115464;27;20044;-79
2023/07/12 02:47:12;;;;;;;7.55;2.38;;;18.10;99.90;;;;;;5122174;27;20164;-79
2023/07/12 02:49:38;;;;;;;4.88;2.17;;;18.00;99.90;;;;;;5119176;27;20504;-80
2023/07/12 02:52:05;;;;;;;7.80;2.33;;;18.00;99.90;;;;;;5114223;27;20067;-79
2023/07/12 02:54:32;;;;;;;5.05;2.50;;;18.00;99.90;;;;;;5115688;27;20093;-79
2023/07/12 02:56:58;;;;;;;8.05;2.80;;;18.00;99.90;;;;;;5111181;27;20031;-79
2023/07/12 02:59:24;;;;;;;9.80;2.78;;;17.90;99.90;;;;;;5118123;27;20122;-79
2023/07/12 03:01:50;;;;;;;7.78;3.30;;;17.80;99.90;;;;;;5118766;27;20100;-80
2023/07/12 03:04:15;;;;;;;13.05;2.70;;;17.80;99.90;;;;;;5116092;27;20395;-79
2023/07/12 03:06:41;;;;;;;9.75;3.05;;;17.80;99.90;;;;;;5118149;27;20062;-80
2023/07/12 03:09:06;;;;;;;9.68;3.15;;;17.80;99.90;;;;;;5113364;27;20039;-80
2023/07/12 03:11:32;;;;;;;10.57;3.05;;;17.80;99.90;;;;;;5111743;28;20048;-79
2023/07/12 03:13:58;;;;;;;9.90;3.47;;;17.70;99.90;;;;;;5111129;28;20517;-79
2023/07/12 03:16:23;;;;;;;15.10;3.88;;;17.70;99.90;;;;;;5125747;27;20450;-79
2023/07/12 03:18:49;;;;;;;8.60;3.00;;;17.70;99.90;;;;;;5111281;28;20044;-80
2023/07/12 03:21:15;;;;;;;8.65;3.65;;;17.70;99.90;;;;;;5115707;28;20039;-79
2023/07/12 03:23:42;;;;;;;9.00;2.70;;;17.70;99.90;;;;;;5121110;28;20039;-80
2023/07/12 03:26:08;;;;;;;10.52;3.22;;;17.60;99.90;;;;;;5115646;27;20039;-79
2023/07/12 03:28:33;;;;;;;13.93;3.88;;;17.60;99.90;;;;;;5113590;28;20042;-79
2023/07/12 03:31:05;;;;;;;12.50;3.70;;;17.60;99.90;;;;;;5115390;28;20043;-79
2023/07/12 03:33:31;;;;;;;9.70;2.60;;;17.60;99.90;;;;;;5111822;28;20054;-78
2023/07/12 03:35:57;;;;;;;9.00;3.45;;;17.60;99.90;;;;;;5117478;27;20087;-79
2023/07/12 03:38:26;;;;;;;9.27;3.20;;;17.70;99.90;;;;;;5123944;27;20043;-79
2023/07/12 03:40:56;;;;;;;11.85;3.33;;;17.60;99.90;;;;;;5119757;27;20521;-80
2023/07/12 03:43:23;;;;;;;10.63;3.80;;;17.60;99.90;;;;;;5122922;27;20051;-79
2023/07/12 03:45:48;;;;;;;11.07;3.97;;;17.60;99.90;;;;;;5098716;28;20038;-79
2023/07/12 03:48:14;;;;;;;9.20;2.92;;;17.60;99.90;;;;;;5121182;27;20518;-80
2023/07/12 03:50:46;;;;;;;10.43;3.88;;;17.60;99.90;;;;;;5123467;27;20127;-80
2023/07/12 03:53:12;;;;;;;7.10;3.15;;;17.60;99.90;;;;;;5122184;27;20895;-79
2023/07/12 03:55:42;;;;;;;9.63;3.53;;;17.60;99.90;;;;;;5116580;27;20118;-80
2023/07/12 03:58:10;;;;;;;8.20;3.40;;;17.60;99.90;;;;;;5121953;27;20039;-79
2023/07/12 04:00:42;;;;;;;12.02;3.17;;;17.50;99.90;;;;;;5114789;27;20055;-80
2023/07/12 04:03:08;;;;;;;8.60;3.17;;;17.50;99.90;;;;;;5115988;27;20035;-80
2023/07/12 04:05:38;;;;;;;9.15;3.80;;;17.50;99.90;;;;;;5118302;27;20042;-79
2023/07/12 04:08:04;;;;;;;8.07;3.13;;;17.50;99.90;;;;;;5126188;27;20036;-79
2023/07/12 04:10:30;;;;;;;7.30;3.13;;;17.50;99.90;;;;;;5124028;27;20063;-80
2023/07/12 04:12:56;;;;;;;11.30;3.38;;;17.50;99.90;;;;;;5121665;27;20071;-80
2023/07/12 04:15:22;;;;;;;7.88;3.10;;;17.50;99.90;;;;;;5118594;27;20059;-80
2023/07/12 04:17:47;;;;;;;7.97;3.70;;;17.50;99.90;;;;;;5114168;27;20032;-80
2023/07/12 04:20:13;;;;;;;11.20;3.60;;;17.60;99.90;;;;;;5120619;27;20043;-80
2023/07/12 04:22:39;;;;;;;12.75;3.45;;;17.60;99.90;;;;;;5115347;27;20059;-80
2023/07/12 04:25:06;;;;;;;13.13;3.85;;;17.60;99.90;;;;;;5117286;27;20040;-80
2023/07/12 04:27:31;;;;;;;10.07;3.47;;;17.60;99.90;;;;;;5098057;27;20051;-81
2023/07/12 04:29:57;;;;;;;6.85;2.65;;;17.60;99.90;;;;;;5117837;27;20043;-80
2023/07/12 04:32:22;;;;;;;7.57;2.90;;;17.60;99.90;;;;;;5114634;27;20043;-79
2023/07/12 04:34:48;;;;;;;8.57;2.90;;;17.60;99.90;;;;;;5111174;27;20044;-79
2023/07/12 04:37:16;;;;;;;9.63;3.60;;;17.50;99.90;;;;;;5110678;27;20040;-81
2023/07/12 04:39:41;;;;;;;10.73;3.63;;;17.60;99.90;;;;;;5106560;27;20050;-79
2023/07/12 04:42:07;;;;;;;10.25;3.28;;;17.60;99.90;;;;;;5109051;27;20035;-80
2023/07/12 04:44:33;;;;;;;11.90;3.47;;;17.60;99.90;;;;;;5115689;27;20080;-78
2023/07/12 04:46:58;;;;;;;9.98;2.90;;;17.50;99.90;;;;;;5117008;27;20047;-80
2023/07/12 04:49:24;;;;;;;9.85;2.72;;;17.50;99.90;;;;;;5115105;27;20047;-80
2023/07/12 04:51:49;;;;;;;8.45;2.83;;;17.60;99.90;;;;;;5113780;27;20039;-80
2023/07/12 04:54:15;;;;;;;9.95;2.65;;;17.50;99.90;;;;;;5116973;27;20123;-79
2023/07/12 04:56:40;;;;;;;9.43;3.08;;;17.60;99.90;;;;;;5116444;27;20054;-80
2023/07/12 04:59:06;;;;;;;7.00;2.80;;;17.60;99.90;;;;;;5115587;27;20770;-80
2023/07/12 05:01:32;;;;;;;15.73;3.03;;;17.60;99.90;;;;;;5120890;27;20028;-80
2023/07/12 05:03:59;;;;;;;12.73;3.80;;;17.60;99.90;;;;;;5112777;27;20108;-80
2023/07/12 05:06:24;;;;;;;9.77;3.53;;;17.60;99.90;;;;;;5119928;27;20526;-80
2023/07/12 05:08:51;;;;;;;13.50;3.10;;;17.60;99.90;;;;;;5124625;27;20043;-79
2023/07/12 05:11:16;;;;;;;13.63;3.35;;;17.70;99.90;;;;;;5115056;27;20398;-79
2023/07/12 05:13:42;;;;;;;16.25;3.72;;;17.70;99.90;;;;;;5116897;27;20038;-80
2023/07/12 05:16:11;;;;;;;12.52;3.63;;;17.70;99.90;;;;;;5119454;27;20180;-79
2023/07/12 05:18:36;;;;;;;10.43;4.15;;;17.70;99.90;;;;;;5116186;27;20043;-79
2023/07/12 05:21:02;;;;;;;14.07;3.60;;;17.70;99.90;;;;;;5115995;27;20043;-79
2023/07/12 05:23:28;;;;;;;9.00;3.50;;;17.80;99.90;;;;;;5118515;27;20047;-76
2023/07/12 05:25:54;;;;;;;16.45;4.40;;;17.80;99.90;;;;;;5117339;27;20098;-80
2023/07/12 05:28:21;;;;;;;11.43;4.15;;;17.90;99.90;;;;;;5113070;27;20082;-80
2023/07/12 05:30:48;;;;;;;11.82;3.42;;;17.90;99.90;;;;;;5115835;27;20058;-79
2023/07/12 05:33:14;;;;;;;9.52;4.00;;;17.90;99.90;;;;;;5123693;27;20111;-79
2023/07/12 05:35:40;;;;;;;10.10;3.95;;;17.90;99.90;;;;;;5120616;27;20031;-79
2023/07/12 05:38:06;;;;;;;13.27;3.70;;;17.90;99.90;;;;;;5120414;27;20039;-79
2023/07/12 05:40:32;;;;;;;13.52;4.25;;;17.90;99.90;;;;;;5115743;27;20039;-79
2023/07/12 05:42:58;;;;;;;10.07;3.95;;;17.80;99.90;;;;;;5112732;27;20048;-79
2023/07/12 05:45:25;;;;;;;11.65;4.70;;;17.90;99.90;;;;;;5121124;27;20061;-79
2023/07/12 05:47:51;;;;;;;11.05;4.03;;;17.80;99.90;;;;;;5118242;27;20043;-79
2023/07/12 05:50:18;;;;;;;9.93;3.97;;;17.80;99.90;;;;;;5117148;27;20188;-79
2023/07/12 05:52:44;;;;;;;11.30;4.78;;;17.80;99.90;;;;;;5118687;27;20055;-77
2023/07/12 05:55:11;;;;;;;13.02;4.13;;;17.80;99.90;;;;;;5111393;27;20040;-80
2023/07/12 05:57:37;;;;;;;14.30;4.70;;;17.90;99.90;;;;;;5108072;27;20038;-79
2023/07/12 06:00:04;;;;;;;10.27;4.38;;;17.90;99.90;;;;;;5117658;27;20047;-77
2023/07/12 06:02:31;;;;;;;12.23;5.28;;;17.90;99.90;;;;;;5117803;27;20493;-78
2023/07/12 06:04:57;;;;;;;11.32;4.22;;;18.00;99.90;;;;;;5110798;27;20157;-79
2023/07/12 06:07:22;;;;;;;12.48;4.35;;;18.00;99.90;;;;;;5115367;27;20075;-80
2023/07/12 06:09:48;;;;;;;9.00;3.80;;;18.20;99.90;;;;;;5107946;27;20071;-78
2023/07/12 06:12:13;;;;;;;14.23;4.35;;;18.50;99.90;;;;;;5116553;27;20031;-80
2023/07/12 06:14:39;;;;;;;10.90;3.97;;;18.60;99.90;;;;;;5111630;27;20528;-81
2023/07/12 06:17:06;;;;;;;13.70;5.47;;;18.60;99.90;;;;;;5109610;27;20088;-81
2023/07/12 06:19:31;;;;;;;15.40;5.20;;;18.60;99.90;;;;;;5112817;27;20427;-81
2023/07/12 06:21:57;;;;;;;12.73;4.70;;;18.70;99.90;;;;;;5099113;28;20048;-81
2023/07/12 06:24:23;;;;;;;12.65;4.40;;;18.70;99.90;;;;;;5113623;27;21324;-82
2023/07/12 06:26:48;;;;;;;7.72;3.78;;;18.70;99.90;;;;;;5112758;27;20054;-81
2023/07/12 06:29:14;;;;;;;9.88;3.92;;;18.60;99.90;;;;;;5106157;27;20059;-80
2023/07/12 06:31:43;;;;;;;8.68;4.10;;;18.50;99.90;;;;;;5109782;27;20028;-81
2023/07/12 06:34:09;;;;;;;7.88;4.03;;;18.50;99.90;;;;;;5115271;27;20071;-80
2023/07/12 06:36:36;;;;;;;13.10;4.68;;;18.40;99.90;;;;;;5108961;27;20043;-84
2023/07/12 06:39:09;;;;;;;11.30;3.60;;;18.50;99.90;;;;;;5095707;27;20058;-81
2023/07/12 06:41:34;;;;;;;13.32;4.35;;;18.70;99.90;;;;;;5108154;27;20039;-81
2023/07/12 06:44:00;;;;;;;10.68;3.67;;;18.90;99.90;;;;;;5106104;27;20118;-81
2023/07/12 06:46:25;;;;;;;11.32;3.70;;;19.00;99.90;;;;;;5113975;27;20051;-81
2023/07/12 06:48:51;;;;;;;7.85;3.25;;;19.30;99.90;;;;;;5116935;27;20039;-81
2023/07/12 06:51:17;;;;;;;11.63;3.97;;;19.60;99.90;;;;;;5112110;27;20085;-80
2023/07/12 06:53:42;;;;;;;11.45;3.95;;;19.80;99.90;;;;;;5119513;27;20039;-81
2023/07/12 06:56:08;;;;;;;8.50;3.85;;;20.30;99.90;;;;;;5116105;27;20038;-82
2023/07/12 06:58:33;;;;;;;9.70;3.67;;;20.40;99.90;;;;;;5112791;27;20085;-81
2023/07/12 07:00:59;;;;;;;9.65;3.25;;;20.20;99.90;;;;;;5116521;27;20070;-80
2023/07/12 07:03:25;;;;;;;11.35;3.80;;;20.20;99.90;;;;;;5110166;27;20057;-81
2023/07/12 07:05:51;;;;;;;7.28;3.15;;;20.10;99.90;;;;;;5109460;27;20216;-81
2023/07/12 07:08:19;;;;;;;12.07;3.20;;;20.00;99.90;;;;;;5114247;27;20172;-81
2023/07/12 07:10:49;;;;;;;9.48;3.45;;;19.90;99.90;;;;;;5112213;27;20112;-82
2023/07/12 07:13:15;;;;;;;8.73;3.25;;;20.00;99.90;;;;;;5114948;27;20036;-80
2023/07/12 07:15:43;;;;;;;9.57;3.13;;;20.10;99.90;;;;;;5115218;28;20583;-81
2023/07/12 07:18:10;;;;;;;10.65;2.78;;;20.20;99.90;;;;;;5107043;28;20119;-81
2023/07/12 07:20:36;;;;;;;12.13;3.13;;;20.30;99.90;;;;;;5112848;28;20039;-82
2023/07/12 07:23:01;;;;;;;11.00;3.10;;;20.30;99.90;;;;;;5111657;28;20047;-81
2023/07/12 07:25:28;;;;;;;17.55;4.50;;;20.20;99.90;;;;;;5108837;28;20162;-81
2023/07/12 07:27:54;;;;;;;10.50;2.67;;;20.00;99.90;;;;;;5113128;28;20096;-82
2023/07/12 07:30:20;;;;;;;17.13;4.60;;;20.00;99.90;;;;;;5113618;28;20043;-81
2023/07/12 07:32:46;;;;;;;10.18;2.78;;;19.90;99.90;;;;;;5108954;28;20457;-79
2023/07/12 07:35:11;;;;;;;11.63;3.17;;;19.80;99.90;;;;;;5111179;28;20107;-81
2023/07/12 07:37:37;;;;;;;10.05;3.05;;;19.80;99.90;;;;;;5089659;28;20428;-81
2023/07/12 07:40:03;;;;;;;8.68;2.75;;;19.80;99.90;;;;;;5107459;28;20185;-81
2023/07/12 07:42:29;;;;;;;11.65;2.78;;;19.80;99.90;;;;;;5115187;28;20043;-81
2023/07/12 07:44:55;;;;;;;9.75;2.97;;;19.90;99.90;;;;;;5115523;28;20128;-80
2023/07/12 07:47:20;;;;;;;12.95;3.10;;;20.10;99.90;;;;;;5113081;28;20044;-82
2023/07/12 07:49:46;;;;;;;8.32;3.08;;;20.10;99.90;;;;;;5113215;28;20044;-81
2023/07/12 07:52:11;;;;;;;9.82;3.28;;;20.10;99.90;;;;;;5115076;28;20032;-81
2023/07/12 07:54:39;;;;;;;13.88;5.43;;;20.10;99.90;;;;;;5110282;28;20037;-81
2023/07/12 07:57:06;;;;;;;10.18;3.35;;;20.10;99.90;;;;;;5114794;28;20036;-81
2023/07/12 07:59:31;;;;;;;12.65;3.67;;;20.20;99.90;;;;;;5115605;28;20046;-81
2023/07/12 08:01:58;;;;;;;14.45;4.35;;;20.30;99.90;;;;;;5114481;27;20039;-82
2023/07/12 08:04:23;;;;;;;9.48;3.08;;;20.40;99.90;;;;;;5108262;28;20043;-82
2023/07/12 08:06:50;;;;;;;9.98;2.70;;;20.30;99.90;;;;;;5103803;28;20028;-81
2023/07/12 08:09:16;;;;;;;9.18;2.75;;;20.30;99.90;;;;;;5113007;28;20047;-82
2023/07/12 08:11:42;;;;;;;9.98;3.20;;;20.30;99.90;;;;;;5115972;28;20393;-81
2023/07/12 08:14:08;;;;;;;6.47;2.65;;;20.60;99.90;;;;;;5105050;28;20051;-81
2023/07/12 08:16:36;;;;;;;11.68;2.92;;;20.70;99.90;;;;;;5103220;28;20047;-81
2023/07/12 08:19:04;;;;;;;8.63;2.97;;;20.70;99.90;;;;;;5108128;28;20391;-81
2023/07/12 08:21:31;;;;;;;7.40;3.10;;;20.80;99.90;;;;;;5113607;27;20031;-82
2023/07/12 08:23:57;;;;;;;11.07;3.17;;;20.80;99.90;;;;;;5112586;27;20051;-78
2023/07/12 08:26:23;;;;;;;10.60;3.47;;;20.70;99.90;;;;;;5111733;27;20047;-80
2023/07/12 08:28:49;;;;;;;15.45;3.67;;;20.60;99.90;;;;;;5111811;27;20043;-82
2023/07/12 08:31:15;;;;;;;12.25;4.05;;;20.50;99.90;;;;;;5119933;27;20039;-81
2023/07/12 08:33:44;;;;;;;6.72;2.95;;;20.50;99.90;;;;;;5121943;27;20051;-81
2023/07/12 08:36:10;;;;;;;7.55;2.97;;;20.50;99.90;;;;;;5118783;27;20069;-80
2023/07/12 08:38:36;;;;;;;10.50;3.22;;;20.60;99.90;;;;;;5111273;27;20422;-82
2023/07/12 08:41:10;;;;;;;12.57;3.58;;;20.70;99.90;;;;;;5109651;27;20084;-80
2023/07/12 08:43:35;;;;;;;9.63;3.10;;;20.70;99.90;;;;;;5118977;27;20035;-79
2023/07/12 08:46:11;;;;;;;9.68;2.53;;;20.60;99.90;;;;;;5120511;27;20046;-80
2023/07/12 08:48:37;;;;;;;12.60;4.13;;;20.50;99.90;;;;;;5119284;27;20496;-81
2023/07/12 08:51:13;;;;;;;9.82;3.78;;;20.30;99.90;;;;;;5113968;27;20059;-81
2023/07/12 08:53:41;;;;;;;11.27;4.80;;;20.10;99.90;;;;;;5119612;27;20050;-81
2023/07/12 08:56:13;;;;;;;17.85;4.55;;;19.80;99.90;;;;;;5122617;27;20039;-81
2023/07/12 08:58:45;;;;;;;9.32;4.10;;;19.80;99.90;;;;;;5119570;27;20050;-81
2023/07/12 09:01:34;;;;;;;9.20;3.45;;;19.70;99.90;;;;;;5117017;27;20456;-81
2023/07/12 09:03:59;;;;;;;8.98;3.42;;;19.70;99.90;;;;;;5112968;27;20054;-81
2023/07/12 09:06:25;;;;;;;9.85;3.45;;;19.70;99.90;;;;;;5094261;28;20047;-81
2023/07/12 09:08:55;;;;;;;7.65;3.33;;;19.70;99.90;;;;;;5115272;27;20047;-81
2023/07/12 09:11:28;;;;;;;11.95;4.25;;;19.90;99.90;;;;;;5117026;27;20043;-80
2023/07/12 09:13:56;;;;;;;7.80;2.80;;;20.40;99.90;;;;;;5119884;27;20088;-82
2023/07/12 09:16:29;;;;;;;11.02;4.22;;;20.80;99.90;;;;;;5114806;27;20038;-80
2023/07/12 09:19:14;;;;;;;7.78;2.83;;;21.20;99.90;;;;;;5112015;27;20043;-79
2023/07/12 09:21:45;;;;;;;8.65;3.38;;;21.30;99.90;;;;;;5114679;27;20036;-81
2023/07/12 09:24:18;;;;;;;9.18;2.65;;;21.40;99.90;;;;;;5117231;27;20071;-81
2023/07/12 09:26:44;;;;;;;8.55;2.53;;;21.30;99.90;;;;;;5115341;27;20061;-81
2023/07/12 09:29:21;;;;;;;9.07;3.03;;;21.40;99.90;;;;;;5118425;27;20098;-81
2023/07/12 09:31:48;;;;;;;8.70;2.92;;;21.70;99.90;;;;;;5116769;27;20081;-80
2023/07/12 09:34:21;;;;;;;9.98;3.25;;;22.00;99.90;;;;;;5114662;27;20035;-81
2023/07/12 09:36:55;;;;;;;9.70;2.95;;;22.10;99.90;;;;;;5118252;27;21325;-81
2023/07/12 09:39:22;;;;;;;14.15;4.03;;;22.00;99.90;;;;;;5114316;27;20049;-84
2023/07/12 09:41:55;;;;;;;11.48;3.67;;;21.80;99.90;;;;;;5108630;27;20676;-80
2023/07/12 09:44:21;;;;;;;8.27;2.13;;;21.50;99.90;;;;;;5112918;27;20433;-78
2023/07/12 09:47:13;;;;;;;9.40;2.42;;;21.20;99.90;;;;;;5114680;27;20028;-79
2023/07/12 09:49:47;;;;;;;6.78;1.70;;;20.90;99.90;;;;;;5116964;27;20555;-79
2023/07/12 09:52:22;;;;;;;8.30;2.10;;;20.70;99.90;;;;;;5117106;27;20545;-80
2023/07/12 09:55:03;;;;;;;6.43;1.60;;;20.50;99.90;;;;;;5110836;27;20043;-80
2023/07/12 09:57:39;;;;;;;8.30;1.67;;;20.50;99.90;;;;;;5095403;27;20052;-79
2023/07/12 10:00:13;;;;;;;7.13;2.30;;;20.40;99.90;;;;;;5116529;27;20038;-80
2023/07/12 10:03:10;;;;;;;6.32;1.75;;;20.80;99.90;;;;;;5117404;27;20043;-80
2023/07/12 10:05:37;;;;;;;6.88;2.53;;;21.10;99.90;;;;;;5117152;27;20036;-79
2023/07/12 10:08:13;;;;;;;7.10;1.95;;;21.50;99.90;;;;;;5104445;27;20035;-79
2023/07/12 10:10:56;;;;;;;6.15;1.35;;;21.70;99.90;;;;;;5112234;27;20044;-80
2023/07/12 10:13:37;;;;;;;8.73;1.80;;;22.20;99.90;;;;;;5092362;27;20151;-80
2023/07/12 10:16:34;;;;;;;7.13;2.30;;;22.30;99.90;;;;;;5104503;27;20035;-79
2023/07/12 10:19:11;;;;;;;8.23;1.60;;;22.60;99.90;;;;;;5113612;27;20056;-80
2023/07/12 10:21:38;;;;;;;7.55;2.08;;;22.90;99.90;;;;;;5114431;27;20038;-81
2023/07/12 10:24:06;;;;;;;4.00;0.90;;;23.20;99.90;;;;;;5101721;27;20047;-79
2023/07/12 10:26:34;;;;;;;5.65;1.45;;;23.40;99.90;;;;;;5115774;27;20096;-80
2023/07/12 10:29:08;;;;;;;4.38;1.20;;;23.30;99.90;;;;;;5115495;27;20054;-80
2023/07/12 10:31:51;;;;;;;4.95;1.05;;;23.30;99.90;;;;;;5107207;27;20126;-80
2023/07/12 10:34:20;;;;;;;4.88;1.00;;;23.30;99.90;;;;;;5114047;27;20139;-80
2023/07/12 10:36:50;;;;;;;4.45;1.85;;;23.20;99.90;;;;;;5112215;27;20517;-80
2023/07/12 10:39:16;;;;;;;4.68;1.23;;;23.20;99.90;;;;;;5105035;27;21063;-80
2023/07/12 10:41:49;;;;;;;3.35;0.85;;;23.30;99.90;;;;;;5114356;27;20051;-81
2023/07/12 10:44:18;;;;;;;5.75;1.27;;;23.50;99.90;;;;;;5113905;27;20035;-79
2023/07/12 10:46:51;;;;;;;3.78;1.38;;;23.60;99.90;;;;;;5107596;27;20122;-81
2023/07/12 10:49:20;;;;;;;3.95;1.10;;;23.60;99.90;;;;;;5109729;27;20081;-78
2023/07/12 10:52:03;;;;;;;7.25;1.30;;;23.90;99.90;;;;;;5114376;27;20066;-79
2023/07/12 10:54:31;;;;;;;3.45;1.30;;;24.00;99.90;;;;;;5104199;27;20079;-79
2023/07/12 10:57:19;;;;;;;4.97;1.00;;;24.10;99.90;;;;;;5112982;27;20039;-81
2023/07/12 10:59:45;;;;;;;4.35;1.23;;;24.00;99.90;;;;;;5113057;27;20027;-80
2023/07/12 11:02:26;;;;;;;3.97;1.30;;;23.70;99.90;;;;;;5108923;27;20343;-82
2023/07/12 11:04:52;;;;;;;4.95;0.63;;;23.30;99.90;;;;;;5111258;27;20040;-81
2023/07/12 11:07:17;;;;;;;4.93;0.93;;;23.10;99.90;;;;;;5110096;28;20040;-81
2023/07/12 11:09:43;;;;;;;3.90;1.05;;;23.00;99.90;;;;;;5112032;27;20039;-81
2023/07/12 11:12:11;;;;;;;4.07;1.45;;;23.20;99.90;;;;;;5109454;27;20353;-80
2023/07/12 11:14:37;;;;;;;4.05;1.23;;;23.40;99.90;;;;;;5111456;27;20040;-81
2023/07/12 11:17:05;;;;;;;3.42;0.90;;;23.70;99.90;;;;;;5114427;28;20102;-81
2023/07/12 11:19:40;;;;;;;12.05;1.25;;;23.90;99.90;;;;;;5120534;28;20077;-81
2023/07/12 11:22:19;;;;;;;3.05;0.70;;;24.00;99.90;;;;;;5120704;28;20091;-80
2023/07/12 11:24:44;;;;;;;2.10;0.47;;;24.20;99.90;;;;;;5111190;28;20093;-82
2023/07/12 11:27:26;;;;;;;2.60;0.60;;;24.30;99.90;;;;;;5113405;28;20047;-81
2023/07/12 11:29:55;;;;;;;2.40;0.45;;;24.40;99.90;;;;;;5113285;28;20068;-81
2023/07/12 11:32:37;;;;;;;3.83;0.60;;;24.50;99.90;;;;;;5111025;28;20142;-81
2023/07/12 11:35:14;;;;;;;2.28;0.60;;;24.60;99.90;;;;;;5111202;28;20054;-81
2023/07/12 11:37:49;;;;;;;5.10;1.25;;;24.70;99.90;;;;;;5111992;28;20063;-81
2023/07/12 11:40:22;;;;;;;3.38;0.75;;;24.70;99.90;;;;;;5109036;28;20047;-81
2023/07/12 11:42:48;;;;;;;2.63;0.73;;;24.80;99.90;;;;;;5119677;28;20110;-82
2023/07/12 11:45:17;;;;;;;2.67;0.50;;;24.80;99.90;;;;;;5112861;28;20054;-81
2023/07/12 11:47:51;;;;;;;1.83;0.60;;;24.90;99.90;;;;;;5112941;28;20035;-81
2023/07/12 11:50:26;;;;;;;3.47;0.60;;;24.70;99.90;;;;;;5115504;28;20059;-82
2023/07/12 11:52:53;;;;;;;3.75;0.45;;;24.50;99.90;;;;;;5107046;28;20458;-82
2023/07/12 11:55:25;;;;;;;3.22;0.60;;;24.40;99.90;;;;;;5116173;27;20058;-81
2023/07/12 11:57:51;;;;;;;3.88;0.70;;;24.50;99.90;;;;;;5121265;27;20043;-80
2023/07/12 12:00:20;;;;;;;2.75;0.77;;;24.70;99.90;;;;;;5114797;27;20039;-81
2023/07/12 12:02:57;;;;;;;3.83;1.10;;;24.80;99.90;;;;;;5123044;27;20082;-81
2023/07/12 12:05:30;;;;;;;2.60;0.75;;;24.70;99.90;;;;;;5117999;27;20281;-80
2023/07/12 12:07:59;;;;;;;2.70;0.60;;;24.60;99.90;;;;;;5115193;27;20082;-81
2023/07/12 12:10:27;;;;;;;4.88;0.50;;;24.70;99.90;;;;;;5121994;27;20055;-82
2023/07/12 12:12:53;;;;;;;1.58;0.57;;;24.70;99.90;;;;;;5114536;27;20047;-81
2023/07/12 12:15:25;;;;;;;4.47;0.60;;;24.70;99.90;;;;;;5121191;27;20934;-80
2023/07/12 12:17:52;;;;;;;4.82;0.50;;;24.70;99.90;;;;;;5113818;27;20040;-81
2023/07/12 12:20:21;;;;;;;2.63;0.73;;;24.90;99.90;;;;;;5116960;27;20081;-82
2023/07/12 12:23:14;;;;;;;2.13;0.40;;;25.00;99.90;;;;;;5107788;27;20046;-80
2023/07/12 12:25:46;;;;;;;5.00;0.68;;;25.00;99.90;;;;;;5101594;27;20055;-82
2023/07/12 12:28:33;;;;;;;3.75;0.40;;;24.90;99.90;;;;;;5115272;27;20040;-80
2023/07/12 12:31:15;;;;;;;3.65;1.02;;;25.00;99.90;;;;;;5107612;27;20123;-82
2023/07/12 12:34:14;;;;;;;2.80;0.60;;;24.90;99.90;;;;;;5112958;27;20040;-83
2023/07/12 12:37:08;;;;;;;2.83;0.43;;;24.60;99.90;;;;;;5109895;27;20074;-82
2023/07/12 12:39:35;;;;;;;3.17;0.40;;;24.60;99.90;;;;;;5107634;27;20122;-83
2023/07/12 12:42:20;;;;;;;1.73;0.50;;;24.60;99.90;;;;;;5108618;27;20118;-82
2023/07/12 12:44:46;;;;;;;1.98;0.52;;;24.80;99.90;;;;;;5106436;27;21781;-82
2023/07/12 12:47:17;;;;;;;1.30;0.45;;;24.80;99.90;;;;;;5113725;27;20043;-83
2023/07/12 12:49:43;;;;;;;2.85;0.60;;;24.90;99.90;;;;;;5112851;27;20046;-82
2023/07/12 12:52:29;;;;;;;3.55;0.50;;;24.90;99.90;;;;;;5116526;27;20039;-81